sensor_id;sensor_type;location;lat;lon;timestamp;pressure;altitude;pressure_sealevel;temperature;humidity
50103;BME280;35993;52.604;10.078;2023-08-12T00:01:51;101351.59;;;20.27;100.00
50103;BME280;35993;52.604;10.078;2023-08-12T00:04:17;101341.06;;;20.24;100.00
50103;BME280;35993;52.604;10.078;2023-08-12T00:06:43;101342.41;;;20.16;100.00
50103;BME280;35993;52.604;10.078;2023-08-12T00:09:10;101341.84;;;20.14;100.00
50103;BME280;35993;52.604;10.078;2023-08-12T00:11:40;101342.09;;;20.12;100.00
50103;BME280;35993;52.604;10.078;2023-08-12T00:14:08;101344.31;;;20.10;100.00
50103;BME280;35993;52.604;10.078;2023-08-12T00:16:34;101339.88;;;20.09;100.00
50103;BME280;35993;52.604;10.078;2023-08-12T00:18:59;101342.09;;;20.12;100.00
50103;BME280;35993;52.604;10.078;2023-08-12T00:21:26;101345.97;;;20.17;100.00
50103;BME280;35993;52.604;10.078;2023-08-12T00:23:51;101348.44;;;20.08;100.00
50103;BME280;35993;52.604;10.078;2023-08-12T00:26:17;101342.59;;;19.99;100.00
50103;BME280;35993;52.604;10.078;2023-08-12T00:28:44;101338.41;;;19.91;100.00
50103;BME280;35993;52.604;10.078;2023-08-12T00:31:09;101332.31;;;19.89;100.00
50103;BME280;35993;52.604;10.078;2023-08-12T00:33:35;101334.25;;;19.89;100.00
50103;BME280;35993;52.604;10.078;2023-08-12T00:36:00;101328.44;;;19.85;100.00
50103;BME280;35993;52.604;10.078;2023-08-12T00:38:28;101330.66;;;19.88;100.00
50103;BME280;35993;52.604;10.078;2023-08-12T00:40:53;101323.75;;;19.86;100.00
50103;BME280;35993;52.604;10.078;2023-08-12T00:43:19;101328.44;;;19.85;100.00
50103;BME280;35993;52.604;10.078;2023-08-12T00:45:45;101328.69;;;19.84;100.00
50103;BME280;35993;52.604;10.078;2023-08-12T00:48:10;101324.75;;;19.79;100.00
50103;BME280;35993;52.604;10.078;2023-08-12T00:50:36;101322.53;;;19.76;100.00
50103;BME280;35993;52.604;10.078;2023-08-12T00:53:03;101319.22;;;19.74;100.00
50103;BME280;35993;52.604;10.078;2023-08-12T00:55:33;101318.94;;;19.71;100.00
50103;BME280;35993;52.604;10.078;2023-08-12T00:57:59;101311.19;;;19.68;100.00
50103;BME280;35993;52.604;10.078;2023-08-12T01:00:25;101310.88;;;19.64;100.00
50103;BME280;35993;52.604;10.078;2023-08-12T01:02:51;101310.31;;;19.62;100.00
50103;BME280;35993;52.604;10.078;2023-08-12T01:05:18;101317.50;;;19.63;100.00
50103;BME280;35993;52.604;10.078;2023-08-12T01:07:44;101313.38;;;19.65;100.00
50103;BME280;35993;52.604;10.078;2023-08-12T01:10:11;101305.31;;;19.59;100.00
50103;BME280;35993;52.604;10.078;2023-08-12T01:12:47;101311.88;;;19.53;100.00
50103;BME280;35993;52.604;10.078;2023-08-12T01:15:17;101305.28;;;19.54;100.00
50103;BME280;35993;52.604;10.078;2023-08-12T01:17:48;101297.28;;;19.52;100.00
50103;BME280;35993;52.604;10.078;2023-08-12T01:20:20;101310.47;;;19.50;100.00
50103;BME280;35993;52.604;10.078;2023-08-12T01:23:18;101298.06;;;19.47;100.00
50103;BME280;35993;52.604;10.078;2023-08-12T01:25:46;101294.78;;;19.45;100.00
50103;BME280;35993;52.604;10.078;2023-08-12T01:28:11;101285.94;;;19.43;100.00
50103;BME280;35993;52.604;10.078;2023-08-12T01:30:46;101283.19;;;19.43;100.00
50103;BME280;35993;52.604;10.078;2023-08-12T01:36:23;101288.44;;;19.50;100.00
50103;BME280;35993;52.604;10.078;2023-08-12T01:38:51;101284.06;;;19.49;100.00
50103;BME280;35993;52.604;10.078;2023-08-12T01:41:18;101274.91;;;19.43;100.00
50103;BME280;35993;52.604;10.078;2023-08-12T01:43:46;101265.84;;;19.43;100.00
50103;BME280;35993;52.604;10.078;2023-08-12T01:46:12;101261.72;;;19.45;100.00
50103;BME280;35993;52.604;10.078;2023-08-12T01:48:37;101263.63;;;19.45;100.00
50103;BME280;35993;52.604;10.078;2023-08-12T01:51:03;101264.47;;;19.45;100.00
50103;BME280;35993;52.604;10.078;2023-08-12T01:53:31;101265.34;;;19.51;100.00
50103;BME280;35993;52.604;10.078;2023-08-12T01:55:56;101260.91;;;19.50;100.00
50103;BME280;35993;52.604;10.078;2023-08-12T01:58:22;101263.13;;;19.48;100.00
50103;BME280;35993;52.604;10.078;2023-08-12T02:00:47;101259.53;;;19.47;100.00
50103;BME280;35993;52.604;10.078;2023-08-12T02:03:13;101255.13;;;19.46;100.00
50103;BME280;35993;52.604;10.078;2023-08-12T02:05:39;101251.00;;;19.44;100.00
50103;BME280;35993;52.604;10.078;2023-08-12T02:08:06;101246.84;;;19.41;100.00
50103;BME280;35993;52.604;10.078;2023-08-12T02:10:34;101255.13;;;19.46;100.00
50103;BME280;35993;52.604;10.078;2023-08-12T02:13:00;101252.13;;;19.48;100.00
50103;BME280;35993;52.604;10.078;2023-08-12T02:15:25;101241.59;;;19.45;100.00
50103;BME280;35993;52.604;10.078;2023-08-12T02:17:51;101231.72;;;19.44;100.00
50103;BME280;35993;52.604;10.078;2023-08-12T02:20:17;101230.88;;;19.43;100.00
50103;BME280;35993;52.604;10.078;2023-08-12T02:22:44;101243.81;;;19.43;100.00
50103;BME280;35993;52.604;10.078;2023-08-12T02:25:09;101237.00;;;19.51;100.00
50103;BME280;35993;52.604;10.078;2023-08-12T02:27:35;101235.28;;;19.44;100.00
50103;BME280;35993;52.604;10.078;2023-08-12T02:30:01;101230.03;;;19.43;100.00
50103;BME280;35993;52.604;10.078;2023-08-12T02:32:28;101232.00;;;19.47;100.00
50103;BME280;35993;52.604;10.078;2023-08-12T02:34:54;101228.97;;;19.44;100.00
50103;BME280;35993;52.604;10.078;2023-08-12T02:37:20;101232.56;;;19.49;100.00
50103;BME280;35993;52.604;10.078;2023-08-12T02:39:45;101232.56;;;19.49;100.00
50103;BME280;35993;52.604;10.078;2023-08-12T02:42:11;101222.13;;;19.52;100.00
50103;BME280;35993;52.604;10.078;2023-08-12T02:44:37;101229.81;;;19.49;100.00
50103;BME280;35993;52.604;10.078;2023-08-12T02:47:03;101220.94;;;19.42;100.00
50103;BME280;35993;52.604;10.078;2023-08-12T02:49:28;101211.81;;;19.37;100.00
50103;BME280;35993;52.604;10.078;2023-08-12T02:51:54;101220.34;;;19.35;100.00
50103;BME280;35993;52.604;10.078;2023-08-12T02:54:20;101218.13;;;19.32;100.00
50103;BME280;35993;52.604;10.078;2023-08-12T02:56:45;101219.22;;;19.31;100.00
50103;BME280;35993;52.604;10.078;2023-08-12T02:59:11;101217.88;;;19.34;100.00
50103;BME280;35993;52.604;10.078;2023-08-12T03:01:37;101230.56;;;19.40;100.00
50103;BME280;35993;52.604;10.078;2023-08-12T03:04:02;101235.09;;;19.19;100.00
50103;BME280;35993;52.604;10.078;2023-08-12T03:06:28;101238.44;;;19.26;100.00
50103;BME280;35993;52.604;10.078;2023-08-12T03:08:54;101230.28;;;19.36;100.00
50103;BME280;35993;52.604;10.078;2023-08-12T03:11:20;101237.75;;;19.46;100.00
50103;BME280;35993;52.604;10.078;2023-08-12T03:13:46;101222.13;;;19.52;100.00
50103;BME280;35993;52.604;10.078;2023-08-12T03:16:12;101227.84;;;19.45;100.00
50103;BME280;35993;52.604;10.078;2023-08-12T03:18:42;101228.38;;;19.42;100.00
50103;BME280;35993;52.604;10.078;2023-08-12T03:21:09;101227.88;;;19.50;100.00
50103;BME280;35993;52.604;10.078;2023-08-12T03:23:36;101226.81;;;19.56;100.00
50103;BME280;35993;52.604;10.078;2023-08-12T03:26:03;101228.50;;;19.57;100.00
50103;BME280;35993;52.604;10.078;2023-08-12T03:28:30;101226.59;;;19.58;100.00
50103;BME280;35993;52.604;10.078;2023-08-12T03:30:57;101228.50;;;19.57;100.00
50103;BME280;35993;52.604;10.078;2023-08-12T03:33:23;101222.41;;;19.55;100.00
50103;BME280;35993;52.604;10.078;2023-08-12T03:35:51;101235.09;;;19.56;100.00
50103;BME280;35993;52.604;10.078;2023-08-12T03:38:17;101228.50;;;19.57;100.00
50103;BME280;35993;52.604;10.078;2023-08-12T03:40:44;101226.16;;;19.39;100.00
50103;BME280;35993;52.604;10.078;2023-08-12T03:43:12;101238.22;;;19.32;100.00
50103;BME280;35993;52.604;10.078;2023-08-12T03:45:44;101229.44;;;19.36;100.00
50103;BME280;35993;52.604;10.078;2023-08-12T03:48:13;101230.00;;;19.38;100.00
50103;BME280;35993;52.604;10.078;2023-08-12T03:50:41;101228.91;;;19.39;100.00
50103;BME280;35993;52.604;10.078;2023-08-12T03:53:07;101232.28;;;19.51;100.00
50103;BME280;35993;52.604;10.078;2023-08-12T03:55:36;101238.69;;;19.57;100.00
50103;BME280;35993;52.604;10.078;2023-08-12T03:58:04;101235.31;;;19.49;100.00
50103;BME280;35993;52.604;10.078;2023-08-12T04:00:31;101235.34;;;19.55;100.00
50103;BME280;35993;52.604;10.078;2023-08-12T04:02:59;101234.25;;;19.56;100.00
50103;BME280;35993;52.604;10.078;2023-08-12T04:05:25;101235.91;;;19.52;100.00
50103;BME280;35993;52.604;10.078;2023-08-12T04:07:50;101235.50;;;19.38;100.00
50103;BME280;35993;52.604;10.078;2023-08-12T04:10:16;101235.81;;;19.41;100.00
50103;BME280;35993;52.604;10.078;2023-08-12T04:12:48;101233.94;;;19.47;100.00
50103;BME280;35993;52.604;10.078;2023-08-12T04:15:34;101230.88;;;19.43;100.00
50103;BME280;35993;52.604;10.078;2023-08-12T04:18:10;101220.19;;;19.52;100.00
50103;BME280;35993;52.604;10.078;2023-08-12T04:20:40;101222.16;;;19.57;100.00
50103;BME280;35993;52.604;10.078;2023-08-12T04:23:06;101222.97;;;19.57;100.00
50103;BME280;35993;52.604;10.078;2023-08-12T04:25:32;101227.66;;;19.57;100.00
50103;BME280;35993;52.604;10.078;2023-08-12T04:27:58;101224.56;;;19.48;100.00
50103;BME280;35993;52.604;10.078;2023-08-12T04:30:27;101227.00;;;19.39;100.00
50103;BME280;35993;52.604;10.078;2023-08-12T04:32:54;101217.94;;;19.44;100.00
50103;BME280;35993;52.604;10.078;2023-08-12T04:35:19;101226.22;;;19.44;100.00
50103;BME280;35993;52.604;10.078;2023-08-12T04:37:45;101225.94;;;19.45;100.00
50103;BME280;35993;52.604;10.078;2023-08-12T04:40:11;101235.28;;;19.44;100.00
50103;BME280;35993;52.604;10.078;2023-08-12T04:42:38;101241.59;;;19.45;100.00
50103;BME280;35993;52.604;10.078;2023-08-12T04:45:05;101236.69;;;19.47;100.00
50103;BME280;35993;52.604;10.078;2023-08-12T04:47:32;101229.03;;;19.54;100.00
50103;BME280;35993;52.604;10.078;2023-08-12T04:49:59;101227.44;;;19.63;100.00
50103;BME280;35993;52.604;10.078;2023-08-12T04:52:25;101233.75;;;19.64;100.00
50103;BME280;35993;52.604;10.078;2023-08-12T04:54:55;101239.16;;;19.48;100.00
50103;BME280;35993;52.604;10.078;2023-08-12T04:57:22;101254.53;;;19.39;100.00
50103;BME280;35993;52.604;10.078;2023-08-12T04:59:48;101244.34;;;19.45;100.00
50103;BME280;35993;52.604;10.078;2023-08-12T05:02:14;101238.34;;;19.48;100.00
50103;BME280;35993;52.604;10.078;2023-08-12T05:04:51;101240.25;;;19.47;100.00
50103;BME280;35993;52.604;10.078;2023-08-12T05:07:18;101240.47;;;19.41;100.00
50103;BME280;35993;52.604;10.078;2023-08-12T05:09:44;101239.94;;;19.39;100.00
50103;BME280;35993;52.604;10.078;2023-08-12T05:12:11;101241.84;;;19.38;100.00
50103;BME280;35993;52.604;10.078;2023-08-12T05:14:38;101244.94;;;19.47;100.00
50103;BME280;35993;52.604;10.078;2023-08-12T05:17:05;101247.06;;;19.40;100.00
50103;BME280;35993;52.604;10.078;2023-08-12T05:19:31;101246.75;;;19.31;100.00
50103;BME280;35993;52.604;10.078;2023-08-12T05:21:57;101253.69;;;19.39;100.00
50103;BME280;35993;52.604;10.078;2023-08-12T05:24:22;101250.69;;;19.40;100.00
50103;BME280;35993;52.604;10.078;2023-08-12T05:26:48;101246.25;;;19.39;100.00
50103;BME280;35993;52.604;10.078;2023-08-12T05:29:14;101256.16;;;19.35;100.00
50103;BME280;35993;52.604;10.078;2023-08-12T05:31:39;101250.38;;;19.37;100.00
50103;BME280;35993;52.604;10.078;2023-08-12T05:34:05;101251.47;;;19.36;100.00
50103;BME280;35993;52.604;10.078;2023-08-12T05:36:32;101253.38;;;19.35;100.00
50103;BME280;35993;52.604;10.078;2023-08-12T05:38:58;101255.09;;;19.41;100.00
50103;BME280;35993;52.604;10.078;2023-08-12T05:41:24;101251.00;;;19.44;100.00
50103;BME280;35993;52.604;10.078;2023-08-12T05:43:52;101262.25;;;19.42;100.00
50103;BME280;35993;52.604;10.078;2023-08-12T05:46:17;101258.69;;;19.47;100.00
50103;BME280;35993;52.604;10.078;2023-08-12T05:48:43;101260.94;;;19.55;100.00
50103;BME280;35993;52.604;10.078;2023-08-12T05:51:09;101249.78;;;19.67;100.00
50103;BME280;35993;52.604;10.078;2023-08-12T05:53:34;101256.44;;;19.76;100.00
50103;BME280;35993;52.604;10.078;2023-08-12T05:56:00;101260.00;;;19.77;100.00
50103;BME280;35993;52.604;10.078;2023-08-12T05:58:26;101249.63;;;19.84;100.00
50103;BME280;35993;52.604;10.078;2023-08-12T06:00:51;101257.91;;;19.89;100.00
50103;BME280;35993;52.604;10.078;2023-08-12T06:03:17;101256.34;;;20.04;100.00
50103;BME280;35993;52.604;10.078;2023-08-12T06:05:46;101249.44;;;20.01;100.00
50103;BME280;35993;52.604;10.078;2023-08-12T06:08:13;101251.94;;;20.03;100.00
50103;BME280;35993;52.604;10.078;2023-08-12T06:10:38;101248.63;;;20.06;100.00
50103;BME280;35993;52.604;10.078;2023-08-12T06:13:13;101247.56;;;20.07;100.00
50103;BME280;35993;52.604;10.078;2023-08-12T06:15:39;101250.31;;;20.07;100.00
50103;BME280;35993;52.604;10.078;2023-08-12T06:18:05;101252.25;;;20.11;100.00
50103;BME280;35993;52.604;10.078;2023-08-12T06:20:31;101253.56;;;19.98;100.00
50103;BME280;35993;52.604;10.078;2023-08-12T06:22:56;101249.97;;;19.98;100.00
50103;BME280;35993;52.604;10.078;2023-08-12T06:25:22;101247.78;;;19.95;100.00
50103;BME280;35993;52.604;10.078;2023-08-12T06:27:47;101247.16;;;19.88;100.00
50103;BME280;35993;52.604;10.078;2023-08-12T06:30:16;101243.34;;;19.94;100.00
50103;BME280;35993;52.604;10.078;2023-08-12T06:32:42;101242.28;;;20.00;100.00
50103;BME280;35993;52.604;10.078;2023-08-12T06:35:08;101230.41;;;20.00;100.00
50103;BME280;35993;52.604;10.078;2023-08-12T06:37:33;101233.75;;;20.02;100.00
50103;BME280;35993;52.604;10.078;2023-08-12T06:39:59;101239.53;;;20.00;100.00
50103;BME280;35993;52.604;10.078;2023-08-12T06:42:25;101232.91;;;20.01;100.00
50103;BME280;35993;52.604;10.078;2023-08-12T06:44:55;101225.50;;;20.07;100.00
50103;BME280;35993;52.604;10.078;2023-08-12T06:47:20;101228.84;;;20.19;100.00
50103;BME280;35993;52.604;10.078;2023-08-12T06:49:46;101225.31;;;20.34;100.00
50103;BME280;35993;52.604;10.078;2023-08-12T06:52:11;101215.38;;;20.33;100.00
50103;BME280;35993;52.604;10.078;2023-08-12T06:54:37;101216.25;;;20.34;100.00
50103;BME280;35993;52.604;10.078;2023-08-12T06:57:03;101210.41;;;20.25;100.00
50103;BME280;35993;52.604;10.078;2023-08-12T06:59:29;101212.88;;;20.21;100.00
50103;BME280;35993;52.604;10.078;2023-08-12T07:01:54;101214.00;;;20.30;100.00
50103;BME280;35993;52.604;10.078;2023-08-12T07:04:20;101201.88;;;20.32;100.00
50103;BME280;35993;52.604;10.078;2023-08-12T07:06:46;101201.91;;;20.37;100.00
50103;BME280;35993;52.604;10.078;2023-08-12T07:09:12;101195.56;;;20.36;100.00
50103;BME280;35993;52.604;10.078;2023-08-12T07:11:38;101189.50;;;20.44;100.00
50103;BME280;35993;52.604;10.078;2023-08-12T07:14:04;101188.72;;;20.59;100.00
50103;BME280;35993;52.604;10.078;2023-08-12T07:16:30;101190.66;;;20.64;100.00
50103;BME280;35993;52.604;10.078;2023-08-12T07:18:55;101189.84;;;20.69;100.00
50103;BME280;35993;52.604;10.078;2023-08-12T07:21:21;101202.28;;;20.76;100.00
50103;BME280;35993;52.604;10.078;2023-08-12T07:23:47;101194.88;;;20.82;100.00
50103;BME280;35993;52.604;10.078;2023-08-12T07:26:12;101194.56;;;20.84;100.00
50103;BME280;35993;52.604;10.078;2023-08-12T07:28:38;101199.53;;;20.92;100.00
50103;BME280;35993;52.604;10.078;2023-08-12T07:31:04;101205.34;;;21.01;100.00
50103;BME280;35993;52.604;10.078;2023-08-12T07:33:29;101199.81;;;21.11;100.00
50103;BME280;35993;52.604;10.078;2023-08-12T07:35:55;101203.44;;;21.17;100.00
50103;BME280;35993;52.604;10.078;2023-08-12T07:38:21;101205.59;;;21.35;100.00
50103;BME280;35993;52.604;10.078;2023-08-12T07:40:48;101187.38;;;21.50;100.00
50103;BME280;35993;52.604;10.078;2023-08-12T07:43:14;101199.81;;;21.63;100.00
50103;BME280;35993;52.604;10.078;2023-08-12T07:45:40;101192.63;;;21.56;100.00
50103;BME280;35993;52.604;10.078;2023-08-12T07:48:06;101192.34;;;21.63;100.00
50103;BME280;35993;52.604;10.078;2023-08-12T07:50:31;101188.19;;;21.60;100.00
50103;BME280;35993;52.604;10.078;2023-08-12T07:52:57;101187.63;;;21.64;100.00
50103;BME280;35993;52.604;10.078;2023-08-12T07:55:23;101185.66;;;21.80;100.00
50103;BME280;35993;52.604;10.078;2023-08-12T07:57:48;101188.41;;;21.85;100.00
50103;BME280;35993;52.604;10.078;2023-08-12T08:00:14;101183.69;;;21.90;100.00
50103;BME280;35993;52.604;10.078;2023-08-12T08:02:40;101179.75;;;22.02;100.00
50103;BME280;35993;52.604;10.078;2023-08-12T08:05:06;101188.63;;;22.04;100.00
50103;BME280;35993;52.604;10.078;2023-08-12T08:07:33;101190.56;;;21.93;100.00
50103;BME280;35993;52.604;10.078;2023-08-12T08:09:58;101188.66;;;21.93;100.00
50103;BME280;35993;52.604;10.078;2023-08-12T08:12:24;101191.34;;;22.09;100.00
50103;BME280;35993;52.604;10.078;2023-08-12T08:14:50;101189.66;;;22.13;100.00
50103;BME280;35993;52.604;10.078;2023-08-12T08:17:15;101189.09;;;22.21;100.00
50103;BME280;35993;52.604;10.078;2023-08-12T08:19:41;101187.94;;;22.38;100.00
50103;BME280;35993;52.604;10.078;2023-08-12T08:22:07;101185.63;;;22.50;100.00
50103;BME280;35993;52.604;10.078;2023-08-12T08:24:33;101189.22;;;22.56;100.00
50103;BME280;35993;52.604;10.078;2023-08-12T08:26:58;101184.56;;;22.46;100.00
50103;BME280;35993;52.604;10.078;2023-08-12T08:29:24;101174.06;;;22.43;99.97
50103;BME280;35993;52.604;10.078;2023-08-12T08:31:50;101180.66;;;22.52;100.00
50103;BME280;35993;52.604;10.078;2023-08-12T08:34:15;101181.22;;;22.49;100.00
50103;BME280;35993;52.604;10.078;2023-08-12T08:36:41;101174.81;;;22.54;100.00
50103;BME280;35993;52.604;10.078;2023-08-12T08:39:07;101185.00;;;22.64;100.00
50103;BME280;35993;52.604;10.078;2023-08-12T08:41:38;101179.69;;;22.72;100.00
50103;BME280;35993;52.604;10.078;2023-08-12T08:44:07;101181.91;;;22.70;100.00
50103;BME280;35993;52.604;10.078;2023-08-12T08:46:34;101185.00;;;22.64;99.15
50103;BME280;35993;52.604;10.078;2023-08-12T08:49:00;101185.78;;;22.69;100.00
50103;BME280;35993;52.604;10.078;2023-08-12T08:51:30;101186.03;;;22.73;100.00
50103;BME280;35993;52.604;10.078;2023-08-12T08:53:56;101183.78;;;22.80;100.00
50103;BME280;35993;52.604;10.078;2023-08-12T08:56:23;101179.91;;;22.76;99.92
50103;BME280;35993;52.604;10.078;2023-08-12T08:58:49;101175.75;;;22.79;100.00
50103;BME280;35993;52.604;10.078;2023-08-12T09:01:18;101170.25;;;22.73;100.00
50103;BME280;35993;52.604;10.078;2023-08-12T09:03:47;101168.84;;;22.76;100.00
50103;BME280;35993;52.604;10.078;2023-08-12T09:06:17;101165.59;;;22.69;100.00
50103;BME280;35993;52.604;10.078;2023-08-12T09:08:45;101162.28;;;22.67;100.00
50103;BME280;35993;52.604;10.078;2023-08-12T09:11:13;101166.16;;;22.66;100.00
50103;BME280;35993;52.604;10.078;2023-08-12T09:13:39;101165.69;;;22.58;100.00
50103;BME280;35993;52.604;10.078;2023-08-12T09:16:05;101162.50;;;22.75;98.89
50103;BME280;35993;52.604;10.078;2023-08-12T09:18:30;101173.59;;;22.70;98.95
50103;BME280;35993;52.604;10.078;2023-08-12T09:20:56;101177.53;;;22.64;100.00
50103;BME280;35993;52.604;10.078;2023-08-12T09:23:22;101173.09;;;22.63;100.00
50103;BME280;35993;52.604;10.078;2023-08-12T09:25:48;101168.69;;;22.57;100.00
50103;BME280;35993;52.604;10.078;2023-08-12T09:28:14;101154.38;;;22.50;100.00
50103;BME280;35993;52.604;10.078;2023-08-12T09:30:40;101148.00;;;22.49;100.00
50103;BME280;35993;52.604;10.078;2023-08-12T09:33:07;101158.53;;;22.52;100.00
50103;BME280;35993;52.604;10.078;2023-08-12T09:35:38;101171.25;;;22.53;100.00
50103;BME280;35993;52.604;10.078;2023-08-12T09:38:06;101166.53;;;22.54;100.00
50103;BME280;35993;52.604;10.078;2023-08-12T09:40:33;101167.94;;;22.51;100.00
50103;BME280;35993;52.604;10.078;2023-08-12T09:43:00;101162.09;;;22.53;100.00
50103;BME280;35993;52.604;10.078;2023-08-12T09:45:26;101160.22;;;22.48;100.00
50103;BME280;35993;52.604;10.078;2023-08-12T09:47:55;101158.84;;;22.46;100.00
50103;BME280;35993;52.604;10.078;2023-08-12T09:50:25;101155.28;;;22.35;100.00
50103;BME280;35993;52.604;10.078;2023-08-12T09:52:53;101152.53;;;22.30;100.00
50103;BME280;35993;52.604;10.078;2023-08-12T09:55:21;101150.34;;;22.26;100.00
50103;BME280;35993;52.604;10.078;2023-08-12T09:57:50;101143.69;;;22.27;100.00
50103;BME280;35993;52.604;10.078;2023-08-12T10:00:17;101135.94;;;22.30;100.00
50103;BME280;35993;52.604;10.078;2023-08-12T10:02:49;101135.63;;;22.41;100.00
50103;BME280;35993;52.604;10.078;2023-08-12T10:05:19;101137.50;;;22.51;100.00
50103;BME280;35993;52.604;10.078;2023-08-12T10:07:49;101135.53;;;22.52;100.00
50103;BME280;35993;52.604;10.078;2023-08-12T10:10:15;101132.78;;;22.52;100.00
50103;BME280;35993;52.604;10.078;2023-08-12T10:12:41;101133.03;;;22.55;100.00
50103;BME280;35993;52.604;10.078;2023-08-12T10:15:08;101127.25;;;22.52;100.00
50103;BME280;35993;52.604;10.078;2023-08-12T10:17:36;101129.50;;;22.50;100.00
50103;BME280;35993;52.604;10.078;2023-08-12T10:20:06;101127.25;;;22.52;100.00
50103;BME280;35993;52.604;10.078;2023-08-12T10:22:34;101123.34;;;22.58;100.00
50103;BME280;35993;52.604;10.078;2023-08-12T10:25:02;101116.09;;;22.62;100.00
50103;BME280;35993;52.604;10.078;2023-08-12T10:27:36;101120.84;;;22.56;100.00
50103;BME280;35993;52.604;10.078;2023-08-12T10:30:06;101113.97;;;22.54;100.00
50103;BME280;35993;52.604;10.078;2023-08-12T10:32:34;101111.13;;;22.64;100.00
50103;BME280;35993;52.604;10.078;2023-08-12T10:35:00;101107.25;;;22.65;100.00
50103;BME280;35993;52.604;10.078;2023-08-12T10:37:26;101112.47;;;22.67;100.00
50103;BME280;35993;52.604;10.078;2023-08-12T10:39:53;101112.72;;;22.70;100.00
50103;BME280;35993;52.604;10.078;2023-08-12T10:42:41;101118.44;;;22.50;100.00
50103;BME280;35993;52.604;10.078;2023-08-12T10:45:18;101116.47;;;22.50;100.00
50103;BME280;35993;52.604;10.078;2023-08-12T10:48:23;101112.22;;;22.63;100.00
50103;BME280;35993;52.604;10.078;2023-08-12T10:50:52;101120.22;;;22.70;100.00
50103;BME280;35993;52.604;10.078;2023-08-12T10:56:04;101129.13;;;22.62;100.00
50103;BME280;35993;52.604;10.078;2023-08-12T10:58:41;101125.53;;;22.61;100.00
50103;BME280;35993;52.604;10.078;2023-08-12T11:01:19;101131.59;;;22.63;100.00
50103;BME280;35993;52.604;10.078;2023-08-12T11:03:46;101130.47;;;22.64;100.00
50103;BME280;35993;52.604;10.078;2023-08-12T11:06:15;101130.69;;;22.73;100.00
50103;BME280;35993;52.604;10.078;2023-08-12T11:08:47;101128.91;;;22.87;100.00
50103;BME280;35993;52.604;10.078;2023-08-12T11:11:23;101126.69;;;22.89;100.00
50103;BME280;35993;52.604;10.078;2023-08-12T11:13:58;101121.91;;;22.95;100.00
50103;BME280;35993;52.604;10.078;2023-08-12T11:16:37;101101.19;;;22.92;100.00
50103;BME280;35993;52.604;10.078;2023-08-12T11:19:04;101094.69;;;23.07;100.00
50103;BME280;35993;52.604;10.078;2023-08-12T11:21:30;101077.31;;;23.02;100.00
50103;BME280;35993;52.604;10.078;2023-08-12T11:23:55;101067.75;;;23.13;100.00
50103;BME280;35993;52.604;10.078;2023-08-12T11:26:24;101084.34;;;23.18;100.00
50103;BME280;35993;52.604;10.078;2023-08-12T11:28:50;101068.25;;;23.20;100.00
50103;BME280;35993;52.604;10.078;2023-08-12T11:31:16;101049.41;;;23.22;100.00
50103;BME280;35993;52.604;10.078;2023-08-12T11:33:44;101064.06;;;23.23;100.00
50103;BME280;35993;52.604;10.078;2023-08-12T11:36:10;101061.84;;;23.25;100.00
50103;BME280;35993;52.604;10.078;2023-08-12T11:38:37;101057.06;;;23.31;99.25
50103;BME280;35993;52.604;10.078;2023-08-12T11:41:03;101052.50;;;23.40;97.89
50103;BME280;35993;52.604;10.078;2023-08-12T11:43:29;101054.66;;;23.48;98.59
50103;BME280;35993;52.604;10.078;2023-08-12T11:45:58;101057.53;;;23.62;97.05
50103;BME280;35993;52.604;10.078;2023-08-12T11:48:25;101060.81;;;23.83;96.65
50103;BME280;35993;52.604;10.078;2023-08-12T11:50:51;101054.06;;;23.95;94.80
50103;BME280;35993;52.604;10.078;2023-08-12T11:53:17;101044.53;;;24.20;94.65
50103;BME280;35993;52.604;10.078;2023-08-12T11:55:43;101034.63;;;24.33;91.01
50103;BME280;35993;52.604;10.078;2023-08-12T11:58:09;101054.22;;;24.56;91.12
50103;BME280;35993;52.604;10.078;2023-08-12T12:00:38;101042.81;;;24.90;89.95
50103;BME280;35993;52.604;10.078;2023-08-12T12:03:06;101036.66;;;24.93;89.86
50103;BME280;35993;52.604;10.078;2023-08-12T12:05:33;101037.09;;;25.28;89.05
50103;BME280;35993;52.604;10.078;2023-08-12T12:08:02;101033.69;;;25.59;85.64
50103;BME280;35993;52.604;10.078;2023-08-12T12:10:32;101027.72;;;25.52;85.72
50103;BME280;35993;52.604;10.078;2023-08-12T12:12:59;101032.34;;;25.29;86.30
50103;BME280;35993;52.604;10.078;2023-08-12T12:15:25;101038.31;;;25.08;86.83
50103;BME280;35993;52.604;10.078;2023-08-12T12:17:51;101043.53;;;24.96;89.38
50103;BME280;35993;52.604;10.078;2023-08-12T12:20:18;101032.53;;;24.91;89.05
50103;BME280;35993;52.604;10.078;2023-08-12T12:22:44;101040.63;;;24.73;88.66
50103;BME280;35993;52.604;10.078;2023-08-12T12:25:12;101030.75;;;24.67;89.42
50103;BME280;35993;52.604;10.078;2023-08-12T12:27:43;101030.44;;;24.68;88.83
50103;BME280;35993;52.604;10.078;2023-08-12T12:30:12;101029.16;;;24.61;89.29
50103;BME280;35993;52.604;10.078;2023-08-12T12:32:41;101027.34;;;24.70;89.73
50103;BME280;35993;52.604;10.078;2023-08-12T12:35:07;101020.38;;;24.73;88.86
50103;BME280;35993;52.604;10.078;2023-08-12T12:37:33;101023.34;;;24.76;88.40